Time;durP1;ratioP1;P1;durP2;ratioP2;P2;SDS_P1;SDS_P2;PMS_P1;PMS_P2;Temp;Humidity;BMP_temperature;BMP_pressure;BME280_temperature;BME280_humidity;BME280_pressure;Samples;Min_cycle;Max_cycle;Signal;HPM_P1;HPM_P2
2023/12/26 00:02:08;;;;;;;;;;;16.90;87.70;;;;;;5054480;28;19943;-73
2023/12/26 00:04:34;;;;;;;;;;;16.90;87.80;;;;;;5055659;28;19913;-72
2023/12/26 00:07:00;;;;;;;;;;;16.90;88.10;;;;;;5055024;28;19917;-71
2023/12/26 00:09:26;;;;;;;;;;;17.00;88.00;;;;;;5054978;28;19909;-71
2023/12/26 00:11:53;;;;;;;;;;;16.90;87.90;;;;;;5054830;28;19917;-72
2023/12/26 00:14:19;;;;;;;;;;;16.90;87.90;;;;;;5054902;28;19913;-76
2023/12/26 00:16:45;;;;;;;;;;;16.90;88.00;;;;;;5054651;28;20367;-76
2023/12/26 00:19:11;;;;;;;;;;;16.90;88.60;;;;;;5054655;28;20379;-76
2023/12/26 00:21:38;;;;;;;;;;;16.90;87.60;;;;;;5054788;28;19962;-76
2023/12/26 00:24:04;;;;;;;;;;;16.90;88.50;;;;;;5054473;28;19916;-76
2023/12/26 00:26:30;;;;;;;;;;;16.90;86.90;;;;;;5054358;28;19923;-76
2023/12/26 00:28:56;;;;;;;;;;;16.90;88.10;;;;;;5054485;28;19912;-76
2023/12/26 00:31:21;;;;;;;;;;;16.90;87.80;;;;;;5054832;28;19917;-76
2023/12/26 00:33:48;;;;;;;;;;;16.90;88.10;;;;;;5054376;28;20004;-76
2023/12/26 00:36:17;;;;;;;;;;;17.00;88.10;;;;;;5054207;28;20425;-76
2023/12/26 00:38:43;;;;;;;;;;;16.90;88.10;;;;;;5054270;28;19909;-75
2023/12/26 00:41:09;;;;;;;;;;;16.90;88.10;;;;;;5054191;28;19909;-74
2023/12/26 00:43:34;;;;;;;;;;;16.90;87.80;;;;;;5053979;28;20352;-74
2023/12/26 00:46:00;;;;;;;;;;;17.10;88.10;;;;;;5054147;28;19909;-74
2023/12/26 00:48:25;;;;;;;;;;;16.90;87.70;;;;;;5053959;28;19924;-74
2023/12/26 00:50:51;;;;;;;;;;;17.10;88.00;;;;;;5053920;28;19960;-74
2023/12/26 00:53:16;;;;;;;;;;;16.90;87.50;;;;;;5054190;28;19909;-74
2023/12/26 00:55:42;;;;;;;;;;;17.10;87.80;;;;;;5054138;28;19936;-76
2023/12/26 00:58:07;;;;;;;;;;;16.90;87.60;;;;;;5053802;28;19972;-76
2023/12/26 01:00:33;;;;;;;;;;;16.90;87.80;;;;;;5054254;28;20370;-71
2023/12/26 01:02:58;;;;;;;;;;;16.90;87.60;;;;;;5053519;28;19922;-72
2023/12/26 01:05:24;;;;;;;;;;;16.90;87.60;;;;;;5053613;28;20291;-72
2023/12/26 01:07:50;;;;;;;;;;;16.90;87.70;;;;;;5053625;28;20300;-72
2023/12/26 01:10:15;;;;;;;;;;;16.80;87.60;;;;;;5053522;28;19913;-73
2023/12/26 01:12:41;;;;;;;;;;;16.90;87.80;;;;;;5053685;28;19913;-73
2023/12/26 01:15:06;;;;;;;;;;;16.90;87.50;;;;;;5053757;28;19909;-73
2023/12/26 01:17:32;;;;;;;;;;;16.90;87.30;;;;;;5053465;28;20384;-72
2023/12/26 01:19:57;;;;;;;;;;;17.00;87.60;;;;;;5053436;28;19928;-72
2023/12/26 01:22:23;;;;;;;;;;;16.90;87.60;;;;;;5053650;28;19908;-71
2023/12/26 01:24:52;;;;;;;;;;;16.90;87.60;;;;;;5053322;28;20388;-71
2023/12/26 01:27:17;;;;;;;;;;;17.00;82.50;;;;;;5053242;28;19909;-71
2023/12/26 01:29:43;;;;;;;;;;;16.90;87.70;;;;;;5053874;28;19916;-74
2023/12/26 01:32:08;;;;;;;;;;;17.00;87.30;;;;;;5053280;28;19948;-74
2023/12/26 01:34:34;;;;;;;;;;;16.90;87.60;;;;;;5053094;28;20329;-75
2023/12/26 01:36:59;;;;;;;;;;;17.00;87.50;;;;;;5053450;28;19917;-74
2023/12/26 01:39:26;;;;;;;;;;;17.00;87.70;;;;;;5053148;28;19909;-73
2023/12/26 01:41:51;;;;;;;;;;;16.90;87.40;;;;;;5053415;28;19914;-76
2023/12/26 01:44:17;;;;;;;;;;;16.90;87.70;;;;;;5053007;28;20345;-74
2023/12/26 01:46:43;;;;;;;;;;;16.90;87.40;;;;;;5053221;28;19909;-76
2023/12/26 01:49:10;;;;;;;;;;;16.90;87.60;;;;;;5053176;28;19916;-75
2023/12/26 01:51:36;;;;;;;;;;;16.90;87.80;;;;;;5053042;28;19987;-76
2023/12/26 01:54:02;;;;;;;;;;;16.90;87.80;;;;;;5052681;28;19944;-76
2023/12/26 01:56:29;;;;;;;;;;;16.90;87.20;;;;;;5053216;28;20335;-76
2023/12/26 01:58:55;;;;;;;;;;;17.00;87.30;;;;;;5052735;28;19944;-76
2023/12/26 02:01:21;;;;;;;;;;;16.90;87.30;;;;;;5052633;28;20440;-74
2023/12/26 02:03:47;;;;;;;;;;;16.80;87.30;;;;;;5052493;28;20299;-76
2023/12/26 02:06:14;;;;;;;;;;;16.90;87.40;;;;;;5052747;28;19913;-76
2023/12/26 02:08:40;;;;;;;;;;;16.90;87.40;;;;;;5052598;28;19955;-76
2023/12/26 02:11:05;;;;;;;;;;;16.90;87.80;;;;;;5052603;28;19917;-76
2023/12/26 02:13:31;;;;;;;;;;;16.90;87.40;;;;;;5052570;28;19913;-76
2023/12/26 02:15:59;;;;;;;;;;;16.80;87.60;;;;;;5052648;28;19980;-76
2023/12/26 02:18:25;;;;;;;;;;;16.90;87.80;;;;;;5052458;28;19916;-76
2023/12/26 02:20:50;;;;;;;;;;;17.80;88.30;;;;;;5052452;28;20417;-76
2023/12/26 02:23:16;;;;;;;;;;;16.90;87.60;;;;;;5034747;28;19913;-76
2023/12/26 02:25:41;;;;;;;;;;;16.80;87.40;;;;;;5052924;28;19917;-76
2023/12/26 02:28:07;;;;;;;;;;;16.90;87.70;;;;;;5034596;28;19933;-76
2023/12/26 02:30:34;;;;;;;;;;;16.90;87.50;;;;;;5052301;28;19916;-75
2023/12/26 02:33:00;;;;;;;;;;;16.80;87.90;;;;;;5052434;28;19909;-75
2023/12/26 02:35:25;;;;;;;;;;;16.90;87.90;;;;;;5052406;28;19908;-76
2023/12/26 02:37:51;;;;;;;;;;;16.90;87.40;;;;;;5052337;28;19913;-72
2023/12/26 02:40:17;;;;;;;;;;;16.90;87.50;;;;;;5052390;28;20059;-72
2023/12/26 02:42:42;;;;;;;;;;;16.80;87.00;;;;;;5052197;28;19956;-72
2023/12/26 02:45:08;;;;;;;;;;;16.80;87.50;;;;;;5052266;28;19909;-73
2023/12/26 02:47:34;;;;;;;;;;;16.90;84.40;;;;;;5052559;28;20318;-73
2023/12/26 02:49:59;;;;;;;;;;;16.90;87.60;;;;;;5052153;28;19917;-73
2023/12/26 02:52:25;;;;;;;;;;;16.80;87.40;;;;;;5052249;28;19937;-73
2023/12/26 02:54:50;;;;;;;;;;;16.70;87.50;;;;;;5052626;28;20377;-70
2023/12/26 02:57:16;;;;;;;;;;;16.80;87.50;;;;;;5052213;28;19909;-72
2023/12/26 02:59:42;;;;;;;;;;;16.80;87.60;;;;;;5052049;28;19915;-71
2023/12/26 03:02:07;;;;;;;;;;;16.80;87.30;;;;;;5051893;28;20388;-73
2023/12/26 03:04:33;;;;;;;;;;;16.90;87.40;;;;;;5052177;28;20391;-72
2023/12/26 03:06:58;;;;;;;;;;;16.80;87.50;;;;;;5054781;28;19955;-76
2023/12/26 03:09:24;;;;;;;;;;;16.90;87.40;;;;;;5055906;28;19909;-76
2023/12/26 03:11:49;;;;;;;;;;;16.80;87.40;;;;;;5055849;28;19921;-75
2023/12/26 03:14:15;;;;;;;;;;;16.80;87.60;;;;;;5055877;28;19916;-76
2023/12/26 03:16:40;;;;;;;;;;;16.80;87.30;;;;;;5055760;28;19913;-74
2023/12/26 03:19:06;;;;;;;;;;;16.80;87.40;;;;;;5055712;28;19932;-74
2023/12/26 03:21:31;;;;;;;;;;;16.80;87.60;;;;;;5055735;28;19909;-76
2023/12/26 03:23:57;;;;;;;;;;;16.80;87.30;;;;;;5056114;28;19962;-74
2023/12/26 03:26:23;;;;;;;;;;;16.80;87.40;;;;;;5055599;28;19996;-74
2023/12/26 03:28:48;;;;;;;;;;;16.80;87.30;;;;;;5055535;28;20294;-74
2023/12/26 03:31:14;;;;;;;;;;;16.80;87.20;;;;;;5055440;28;19917;-74
2023/12/26 03:33:39;;;;;;;;;;;16.80;87.30;;;;;;5055776;28;20375;-74
2023/12/26 03:36:05;;;;;;;;;;;16.70;87.10;;;;;;5055463;28;19932;-74
2023/12/26 03:38:31;;;;;;;;;;;16.80;85.80;;;;;;5055339;28;19936;-74
2023/12/26 03:40:57;;;;;;;;;;;16.70;87.00;;;;;;5055287;28;19951;-74
2023/12/26 03:43:22;;;;;;;;;;;16.80;87.50;;;;;;5055384;28;19909;-74
2023/12/26 03:45:49;;;;;;;;;;;16.80;87.40;;;;;;5055266;28;20338;-74
2023/12/26 03:48:15;;;;;;;;;;;16.70;87.60;;;;;;5055174;28;19909;-74
2023/12/26 03:50:40;;;;;;;;;;;16.70;87.20;;;;;;5055723;28;19928;-72
2023/12/26 03:53:06;;;;;;;;;;;16.70;87.20;;;;;;5055076;28;19999;-72
2023/12/26 03:55:32;;;;;;;;;;;16.80;87.30;;;;;;5055096;28;19930;-72
2023/12/26 03:57:58;;;;;;;;;;;16.70;87.00;;;;;;5055032;28;19967;-71
2023/12/26 04:00:24;;;;;;;;;;;16.70;87.10;;;;;;5054969;28;20323;-72
2023/12/26 04:02:49;;;;;;;;;;;16.70;87.20;;;;;;5054822;28;19917;-72
2023/12/26 04:05:15;;;;;;;;;;;16.70;87.20;;;;;;5054882;28;19919;-71
2023/12/26 04:07:40;;;;;;;;;;;16.70;87.20;;;;;;5054908;28;19917;-71
2023/12/26 04:10:06;;;;;;;;;;;16.70;87.30;;;;;;5054637;28;20059;-71
2023/12/26 04:12:34;;;;;;;;;;;16.70;85.80;;;;;;5054223;28;20586;-71
2023/12/26 04:15:00;;;;;;;;;;;16.80;87.00;;;;;;5054911;28;19944;-71
2023/12/26 04:17:26;;;;;;;;;;;16.70;87.00;;;;;;5054068;28;19957;-72
2023/12/26 04:19:51;;;;;;;;;;;16.60;86.80;;;;;;5055034;28;19915;-71
2023/12/26 04:22:17;;;;;;;;;;;16.70;87.20;;;;;;5054471;28;19909;-72
2023/12/26 04:24:42;;;;;;;;;;;16.70;87.20;;;;;;5054511;28;19909;-72
2023/12/26 04:27:08;;;;;;;;;;;16.70;87.10;;;;;;5054426;28;19908;-72
2023/12/26 04:29:33;;;;;;;;;;;16.70;87.30;;;;;;5054354;28;19931;-72
2023/12/26 04:31:59;;;;;;;;;;;16.60;87.20;;;;;;5054348;28;19953;-74
2023/12/26 04:34:25;;;;;;;;;;;16.80;87.50;;;;;;5054478;28;19908;-74
2023/12/26 04:36:51;;;;;;;;;;;16.80;87.50;;;;;;5054492;28;19908;-74
2023/12/26 04:39:16;;;;;;;;;;;16.70;87.50;;;;;;5054145;28;19909;-74
2023/12/26 04:41:42;;;;;;;;;;;16.70;87.30;;;;;;5054245;28;19916;-74
2023/12/26 04:44:07;;;;;;;;;;;16.70;87.60;;;;;;5054094;28;19916;-74
2023/12/26 04:46:33;;;;;;;;;;;16.70;87.30;;;;;;5054060;28;19909;-74
2023/12/26 04:48:58;;;;;;;;;;;16.70;87.20;;;;;;5054506;28;19908;-74
2023/12/26 04:51:28;;;;;;;;;;;16.70;87.30;;;;;;5053910;28;20376;-74
2023/12/26 04:53:54;;;;;;;;;;;16.70;87.60;;;;;;5054217;28;19913;-74
2023/12/26 04:56:19;;;;;;;;;;;16.70;87.40;;;;;;5053812;28;19909;-74
2023/12/26 04:58:49;;;;;;;;;;;16.70;87.30;;;;;;5053809;28;20299;-75
2023/12/26 05:01:15;;;;;;;;;;;16.70;87.30;;;;;;5053770;28;19909;-71
2023/12/26 05:03:41;;;;;;;;;;;16.70;87.10;;;;;;5053433;28;20082;-71
2023/12/26 05:06:06;;;;;;;;;;;17.00;87.60;;;;;;5053637;28;19958;-71
2023/12/26 05:08:32;;;;;;;;;;;16.80;87.30;;;;;;5053609;28;20007;-71
2023/12/26 05:10:58;;;;;;;;;;;16.80;87.30;;;;;;5053381;28;19917;-71
2023/12/26 05:13:23;;;;;;;;;;;16.80;87.10;;;;;;5053422;28;19909;-71
2023/12/26 05:15:49;;;;;;;;;;;16.70;87.30;;;;;;5053519;28;19954;-71
2023/12/26 05:18:15;;;;;;;;;;;16.80;87.00;;;;;;5054000;28;19916;-74
2023/12/26 05:20:40;;;;;;;;;;;16.70;86.90;;;;;;5053601;28;20052;-74
2023/12/26 05:23:06;;;;;;;;;;;16.70;87.10;;;;;;5053403;28;20426;-74
2023/12/26 05:25:32;;;;;;;;;;;16.80;87.00;;;;;;5053465;28;20007;-74
2023/12/26 05:27:58;;;;;;;;;;;16.80;87.20;;;;;;5053445;28;19908;-71
2023/12/26 05:30:24;;;;;;;;;;;16.80;87.00;;;;;;5052628;28;20384;-71
2023/12/26 05:32:49;;;;;;;;;;;16.80;86.90;;;;;;5053233;28;20003;-71
2023/12/26 05:35:15;;;;;;;;;;;17.00;87.20;;;;;;5053121;28;20007;-71
2023/12/26 05:37:41;;;;;;;;;;;16.80;86.80;;;;;;5053072;28;20468;-71
2023/12/26 05:40:06;;;;;;;;;;;16.70;86.90;;;;;;5053020;28;19915;-71
2023/12/26 05:42:32;;;;;;;;;;;16.90;85.50;;;;;;5053048;28;19913;-71
2023/12/26 05:44:57;;;;;;;;;;;16.70;86.70;;;;;;5053434;28;19909;-71
2023/12/26 05:47:23;;;;;;;;;;;16.80;87.00;;;;;;5052935;28;20298;-71
2023/12/26 05:49:49;;;;;;;;;;;16.80;86.60;;;;;;5052992;28;20344;-71
2023/12/26 05:52:15;;;;;;;;;;;16.90;86.80;;;;;;5052830;28;19920;-71
2023/12/26 05:54:40;;;;;;;;;;;16.70;86.60;;;;;;5052709;28;19909;-71
2023/12/26 05:57:06;;;;;;;;;;;16.80;86.50;;;;;;5052799;28;20310;-71
2023/12/26 05:59:31;;;;;;;;;;;16.70;86.60;;;;;;5052702;28;20315;-71
2023/12/26 06:01:57;;;;;;;;;;;16.70;86.20;;;;;;5052541;28;20279;-72
2023/12/26 06:04:22;;;;;;;;;;;17.00;86.50;;;;;;5052429;28;19921;-72
2023/12/26 06:06:48;;;;;;;;;;;16.70;86.30;;;;;;5052526;28;19912;-71
2023/12/26 06:09:14;;;;;;;;;;;16.70;86.20;;;;;;5052631;28;19916;-71
2023/12/26 06:11:40;;;;;;;;;;;16.70;86.80;;;;;;5052455;28;20055;-71
2023/12/26 06:14:07;;;;;;;;;;;16.80;86.40;;;;;;5053121;28;19912;-72
2023/12/26 06:16:33;;;;;;;;;;;16.80;86.50;;;;;;5052430;28;19915;-71
2023/12/26 06:18:58;;;;;;;;;;;16.70;86.30;;;;;;5052679;28;19908;-72
2023/12/26 06:21:24;;;;;;;;;;;16.70;86.10;;;;;;5052438;28;19909;-71
2023/12/26 06:23:49;;;;;;;;;;;16.70;86.50;;;;;;5052523;28;19913;-71
2023/12/26 06:26:17;;;;;;;;;;;16.70;86.10;;;;;;5052511;28;19909;-75
2023/12/26 06:28:42;;;;;;;;;;;16.80;86.30;;;;;;5052349;28;19912;-75
2023/12/26 06:31:13;;;;;;;;;;;16.70;86.10;;;;;;5052271;28;20363;-75
2023/12/26 06:33:39;;;;;;;;;;;16.70;81.00;;;;;;5052253;28;19944;-75
2023/12/26 06:36:04;;;;;;;;;;;16.70;86.20;;;;;;5052571;28;19909;-75
2023/12/26 06:38:30;;;;;;;;;;;16.80;85.20;;;;;;5052616;28;19909;-75
2023/12/26 06:40:55;;;;;;;;;;;16.70;86.20;;;;;;5053222;28;20390;-75
2023/12/26 06:43:21;;;;;;;;;;;16.80;86.10;;;;;;5056892;28;20011;-75
2023/12/26 06:45:46;;;;;;;;;;;16.70;85.80;;;;;;5058283;28;19996;-75
2023/12/26 06:48:12;;;;;;;;;;;16.80;86.80;;;;;;5056296;28;20267;-77
2023/12/26 06:50:37;;;;;;;;;;;16.80;86.60;;;;;;5056239;28;20386;-75
2023/12/26 06:53:03;;;;;;;;;;;16.70;86.50;;;;;;5056320;28;19916;-76
2023/12/26 06:55:29;;;;;;;;;;;16.60;86.20;;;;;;5056199;28;20378;-70
2023/12/26 06:57:55;;;;;;;;;;;16.70;86.50;;;;;;5056024;28;20291;-69
2023/12/26 07:00:21;;;;;;;;;;;16.60;86.20;;;;;;5056050;28;20453;-78
2023/12/26 07:02:47;;;;;;;;;;;16.70;86.20;;;;;;5056206;28;20015;-72
2023/12/26 07:05:13;;;;;;;;;;;16.70;85.90;;;;;;5056232;28;19939;-76
2023/12/26 07:07:38;;;;;;;;;;;16.70;86.80;;;;;;5056179;28;19908;-74
2023/12/26 07:10:04;;;;;;;;;;;16.70;86.20;;;;;;5056189;28;20293;-73
2023/12/26 07:12:29;;;;;;;;;;;17.00;85.90;;;;;;5055904;28;19909;-73
2023/12/26 07:14:55;;;;;;;;;;;16.70;85.90;;;;;;5056241;28;19909;-75
2023/12/26 07:17:20;;;;;;;;;;;16.70;86.10;;;;;;5055815;28;19913;-73
2023/12/26 07:19:46;;;;;;;;;;;16.70;85.80;;;;;;5055687;28;19909;-72
2023/12/26 07:22:11;;;;;;;;;;;16.70;86.00;;;;;;5055760;28;20043;-75
2023/12/26 07:24:37;;;;;;;;;;;16.70;85.70;;;;;;5055676;28;19963;-76
2023/12/26 07:27:02;;;;;;;;;;;16.70;85.90;;;;;;5055629;28;19909;-72
2023/12/26 07:29:28;;;;;;;;;;;16.70;85.50;;;;;;5055865;28;19916;-73
2023/12/26 07:31:54;;;;;;;;;;;16.70;85.40;;;;;;5055521;28;20015;-82
2023/12/26 07:34:20;;;;;;;;;;;16.60;85.90;;;;;;5055482;28;19909;-72
2023/12/26 07:36:45;;;;;;;;;;;16.70;85.50;;;;;;5055218;28;20127;-71
2023/12/26 07:39:11;;;;;;;;;;;16.70;85.40;;;;;;5055445;28;20330;-70
2023/12/26 07:41:37;;;;;;;;;;;16.80;85.20;;;;;;5055215;28;19948;-73
2023/12/26 07:44:04;;;;;;;;;;;16.60;85.50;;;;;;5055335;28;19948;-72
2023/12/26 07:46:30;;;;;;;;;;;16.60;84.30;;;;;;5055420;28;20460;-71
2023/12/26 07:48:56;;;;;;;;;;;16.70;84.90;;;;;;5055421;28;19944;-71
2023/12/26 07:51:24;;;;;;;;;;;16.60;84.80;;;;;;5056426;28;19924;-72
2023/12/26 07:53:50;;;;;;;;;;;16.60;84.70;;;;;;5055192;28;19915;-73
2023/12/26 07:56:16;;;;;;;;;;;16.50;85.10;;;;;;5055120;28;19951;-74
2023/12/26 07:58:42;;;;;;;;;;;16.50;84.90;;;;;;5055145;28;19913;-73
2023/12/26 08:01:08;;;;;;;;;;;16.50;84.80;;;;;;5054710;28;20434;-74
2023/12/26 08:03:34;;;;;;;;;;;16.50;85.00;;;;;;5054495;28;19921;-72
2023/12/26 08:06:00;;;;;;;;;;;16.50;85.30;;;;;;5054621;28;19909;-74
2023/12/26 08:08:26;;;;;;;;;;;16.50;85.30;;;;;;5054906;28;19909;-73
2023/12/26 08:10:52;;;;;;;;;;;16.50;84.80;;;;;;5054609;28;20261;-76
2023/12/26 08:13:17;;;;;;;;;;;16.50;85.60;;;;;;5054742;28;19909;-74
2023/12/26 08:15:43;;;;;;;;;;;16.50;85.30;;;;;;5055026;28;19962;-73
2023/12/26 08:18:09;;;;;;;;;;;16.50;84.80;;;;;;5054961;28;20314;-79
2023/12/26 08:20:37;;;;;;;;;;;16.50;85.00;;;;;;5054908;28;19932;-76
2023/12/26 08:23:03;;;;;;;;;;;16.50;84.90;;;;;;5054514;28;19909;-73
2023/12/26 08:25:29;;;;;;;;;;;16.40;84.20;;;;;;5054557;28;19909;-76
2023/12/26 08:27:55;;;;;;;;;;;16.50;84.80;;;;;;5054436;28;19908;-76
2023/12/26 08:30:21;;;;;;;;;;;16.50;84.10;;;;;;5054426;28;19920;-76
2023/12/26 08:32:47;;;;;;;;;;;16.50;84.00;;;;;;5054329;28;20433;-75
2023/12/26 08:35:13;;;;;;;;;;;16.40;83.70;;;;;;5054247;28;19966;-72
2023/12/26 08:37:39;;;;;;;;;;;16.20;83.70;;;;;;5054629;28;19909;-76
2023/12/26 08:40:05;;;;;;;;;;;16.50;83.70;;;;;;5054316;28;19916;-76
2023/12/26 08:42:31;;;;;;;;;;;16.40;81.60;;;;;;5054182;28;19913;-76
2023/12/26 08:44:56;;;;;;;;;;;16.40;83.90;;;;;;5054532;28;19944;-76
2023/12/26 08:47:22;;;;;;;;;;;16.40;84.10;;;;;;5054162;28;20334;-76
2023/12/26 08:49:47;;;;;;;;;;;16.40;84.50;;;;;;5054252;28;19909;-76
2023/12/26 08:52:13;;;;;;;;;;;16.30;83.50;;;;;;5054501;28;20008;-72
2023/12/26 08:54:39;;;;;;;;;;;16.40;83.90;;;;;;5054101;28;20012;-72
2023/12/26 08:57:04;;;;;;;;;;;16.30;84.10;;;;;;5054002;28;20256;-72
2023/12/26 08:59:30;;;;;;;;;;;16.20;83.70;;;;;;5054249;28;19909;-72
2023/12/26 09:01:56;;;;;;;;;;;16.30;83.60;;;;;;5053889;28;19931;-72
2023/12/26 09:04:26;;;;;;;;;;;16.30;83.50;;;;;;5053654;28;19932;-72
2023/12/26 09:06:52;;;;;;;;;;;16.30;83.80;;;;;;5054223;28;19912;-72
2023/12/26 09:09:17;;;;;;;;;;;16.20;83.70;;;;;;5053713;28;19913;-72
2023/12/26 09:11:43;;;;;;;;;;;16.30;83.50;;;;;;5053694;28;19923;-72
2023/12/26 09:14:08;;;;;;;;;;;16.20;83.70;;;;;;5053639;28;20440;-72
2023/12/26 09:16:34;;;;;;;;;;;16.30;83.80;;;;;;5053635;28;19916;-72
2023/12/26 09:18:59;;;;;;;;;;;16.30;83.60;;;;;;5053631;28;19928;-72
2023/12/26 09:21:25;;;;;;;;;;;16.20;83.70;;;;;;5054047;28;19909;-72
2023/12/26 09:23:50;;;;;;;;;;;16.20;83.70;;;;;;5053499;28;20295;-72
2023/12/26 09:26:20;;;;;;;;;;;16.20;83.90;;;;;;5053511;28;19955;-72
2023/12/26 09:28:45;;;;;;;;;;;16.20;84.00;;;;;;5053440;28;19985;-72
2023/12/26 09:31:11;;;;;;;;;;;16.40;84.00;;;;;;5053385;28;19921;-72
2023/12/26 09:33:37;;;;;;;;;;;16.20;83.80;;;;;;5053327;28;19909;-72
2023/12/26 09:36:02;;;;;;;;;;;16.20;83.90;;;;;;5053674;28;19995;-72
2023/12/26 09:38:28;;;;;;;;;;;16.20;82.80;;;;;;5053176;28;19962;-72
2023/12/26 09:40:53;;;;;;;;;;;16.20;83.90;;;;;;5053283;28;20337;-72
2023/12/26 09:43:19;;;;;;;;;;;16.20;83.70;;;;;;5053177;28;19908;-72
2023/12/26 09:45:44;;;;;;;;;;;16.10;83.40;;;;;;5053398;28;19909;-72
2023/12/26 09:48:11;;;;;;;;;;;16.30;83.90;;;;;;5053088;28;19916;-72
2023/12/26 09:50:36;;;;;;;;;;;16.10;83.30;;;;;;5053381;28;19917;-76
2023/12/26 09:53:04;;;;;;;;;;;16.20;83.50;;;;;;5053043;28;20320;-76
2023/12/26 09:55:30;;;;;;;;;;;16.20;83.60;;;;;;5052802;28;19932;-76
2023/12/26 09:57:57;;;;;;;;;;;16.20;83.40;;;;;;5052883;28;20024;-76
2023/12/26 10:00:23;;;;;;;;;;;16.20;83.40;;;;;;5052829;28;19938;-76
2023/12/26 10:02:49;;;;;;;;;;;16.10;82.90;;;;;;5052735;28;19921;-76
2023/12/26 10:05:15;;;;;;;;;;;16.30;83.20;;;;;;5052817;28;19909;-76
2023/12/26 10:07:42;;;;;;;;;;;16.30;83.00;;;;;;5052961;28;19916;-76
2023/12/26 10:10:11;;;;;;;;;;;16.20;83.40;;;;;;5052685;28;19994;-76
2023/12/26 10:12:36;;;;;;;;;;;16.30;82.70;;;;;;5052586;28;19958;-76
2023/12/26 10:15:02;;;;;;;;;;;16.30;83.20;;;;;;5052472;28;19913;-75
2023/12/26 10:17:28;;;;;;;;;;;16.30;82.60;;;;;;5052229;28;19909;-76
2023/12/26 10:19:57;;;;;;;;;;;16.30;82.70;;;;;;5053203;28;19909;-76
2023/12/26 10:22:23;;;;;;;;;;;16.30;77.90;;;;;;5052627;28;19995;-76
2023/12/26 10:24:49;;;;;;;;;;;16.40;83.20;;;;;;5052426;28;20007;-75
2023/12/26 10:27:15;;;;;;;;;;;16.40;82.90;;;;;;5052595;28;20402;-76
2023/12/26 10:29:40;;;;;;;;;;;16.40;82.70;;;;;;5052523;28;19992;-75
2023/12/26 10:32:06;;;;;;;;;;;16.40;82.70;;;;;;5052447;28;20321;-76
2023/12/26 10:34:32;;;;;;;;;;;16.40;82.70;;;;;;5052425;28;19916;-76
2023/12/26 10:36:59;;;;;;;;;;;16.50;82.60;;;;;;5034514;28;19963;-76
2023/12/26 10:39:24;;;;;;;;;;;16.50;82.30;;;;;;5052367;28;19996;-76
2023/12/26 10:41:52;;;;;;;;;;;16.60;82.50;;;;;;5052542;28;19959;-76
2023/12/26 10:44:17;;;;;;;;;;;16.60;82.80;;;;;;5052351;28;19909;-76
2023/12/26 10:46:44;;;;;;;;;;;16.70;82.10;;;;;;5052718;28;19984;-76
2023/12/26 10:49:10;;;;;;;;;;;16.60;82.60;;;;;;5052526;28;19908;-76
2023/12/26 10:51:39;;;;;;;;;;;16.70;82.90;;;;;;5052321;28;19936;-76
2023/12/26 10:54:07;;;;;;;;;;;16.70;83.10;;;;;;5052317;28;19909;-75
2023/12/26 10:56:33;;;;;;;;;;;16.80;77.60;;;;;;5052260;28;20007;-76
2023/12/26 10:58:59;;;;;;;;;;;16.80;83.20;;;;;;5052228;28;20394;-76
2023/12/26 13:52:19;;;;;;;;;;;16.60;78.70;;;;;;5052608;28;19924;-76
2023/12/26 13:54:45;;;;;;;;;;;16.50;83.50;;;;;;5053009;28;19963;-76
2023/12/26 13:57:10;;;;;;;;;;;16.50;83.80;;;;;;5053022;28;19912;-76
2023/12/26 13:59:36;;;;;;;;;;;16.50;83.60;;;;;;5052858;28;19909;-76
2023/12/26 14:02:01;;;;;;;;;;;16.40;83.10;;;;;;5052810;28;19917;-75
2023/12/26 14:04:46;;;;;;;;;;;16.50;83.40;;;;;;5052598;28;19927;-76
2023/12/26 14:07:31;;;;;;;;;;;16.50;83.40;;;;;;5053349;28;19997;-72
2023/12/26 14:10:15;;;;;;;;;;;16.40;78.50;;;;;;5052757;28;20303;-72
2023/12/26 14:13:00;;;;;;;;;;;16.60;78.40;;;;;;5052656;28;19924;-72
2023/12/26 14:15:44;;;;;;;;;;;16.50;78.40;;;;;;5052582;28;20011;-72
2023/12/26 14:18:28;;;;;;;;;;;16.50;79.00;;;;;;5052602;28;19916;-72
2023/12/26 14:21:12;;;;;;;;;;;16.40;78.40;;;;;;5034663;28;20529;-72
2023/12/26 14:23:56;;;;;;;;;;;16.50;78.80;;;;;;5052520;28;19909;-72
2023/12/26 14:26:42;;;;;;;;;;;16.50;78.50;;;;;;5052656;28;19951;-72
2023/12/26 14:29:25;;;;;;;;;;;16.40;78.60;;;;;;5052538;28;19908;-72
2023/12/26 14:32:10;;;;;;;;;;;16.50;78.40;;;;;;5052422;28;19925;-72
2023/12/26 14:34:54;;;;;;;;;;;16.40;78.50;;;;;;5053047;28;20395;-75
2023/12/26 14:37:38;;;;;;;;;;;16.50;78.40;;;;;;5052729;28;20295;-76
2023/12/26 14:40:22;;;;;;;;;;;16.50;78.40;;;;;;5052512;28;19913;-76
2023/12/26 14:43:06;;;;;;;;;;;16.40;78.50;;;;;;5052405;28;19913;-76
2023/12/26 14:45:50;;;;;;;;;;;16.40;78.40;;;;;;5052180;28;19999;-72
2023/12/26 14:48:34;;;;;;;;;;;16.40;78.50;;;;;;5052459;28;19917;-75
2023/12/26 14:51:18;;;;;;;;;;;16.40;78.30;;;;;;5052249;28;20011;-76
2023/12/26 14:54:03;;;;;;;;;;;16.40;78.50;;;;;;5052299;28;19937;-76
2023/12/26 14:56:47;;;;;;;;;;;16.40;78.40;;;;;;5052246;28;19909;-76
2023/12/26 14:59:31;;;;;;;;;;;16.40;78.60;;;;;;5052291;28;19909;-76
2023/12/26 15:02:01;;;;;;;;;;;16.40;83.70;;;;;;5053106;28;19923;-76
2023/12/26 15:04:27;;;;;;;;;;;16.40;83.90;;;;;;5056627;28;20347;-76
2023/12/26 15:06:56;;;;;;;;;;;16.50;84.30;;;;;;5056020;28;19917;-76
2023/12/26 15:09:22;;;;;;;;;;;16.40;78.90;;;;;;5056178;28;20010;-76
2023/12/26 15:11:47;;;;;;;;;;;16.60;83.90;;;;;;5056185;28;19924;-76
2023/12/26 15:14:13;;;;;;;;;;;16.50;83.90;;;;;;5056099;28;19908;-76
2023/12/26 15:16:39;;;;;;;;;;;16.40;83.80;;;;;;5056104;28;19909;-76
2023/12/26 15:19:04;;;;;;;;;;;16.40;83.90;;;;;;5056154;28;19924;-75
2023/12/26 15:21:30;;;;;;;;;;;16.40;83.90;;;;;;5055900;28;20363;-76
2023/12/26 15:23:55;;;;;;;;;;;16.40;83.60;;;;;;5055776;28;19915;-76
2023/12/26 15:26:21;;;;;;;;;;;16.50;83.90;;;;;;5056008;28;19913;-76
2023/12/26 15:28:47;;;;;;;;;;;16.40;83.90;;;;;;5055694;28;19916;-76
2023/12/26 15:31:16;;;;;;;;;;;16.40;83.80;;;;;;5056082;28;19917;-72
2023/12/26 15:33:42;;;;;;;;;;;16.40;78.70;;;;;;5055666;28;19935;-72
2023/12/26 15:36:18;;;;;;;;;;;16.40;84.00;;;;;;5055546;28;19915;-72
2023/12/26 15:38:44;;;;;;;;;;;16.40;78.70;;;;;;5055819;28;19913;-72
2023/12/26 15:41:09;;;;;;;;;;;16.50;83.60;;;;;;5055484;28;19931;-72
2023/12/26 15:43:35;;;;;;;;;;;16.40;83.80;;;;;;5055588;28;19909;-72
2023/12/26 15:46:00;;;;;;;;;;;16.40;83.80;;;;;;5055345;28;19913;-72
2023/12/26 15:48:26;;;;;;;;;;;16.40;83.60;;;;;;5055397;28;19909;-72
2023/12/26 15:50:51;;;;;;;;;;;16.40;83.70;;;;;;5055286;28;19913;-72
2023/12/26 15:53:17;;;;;;;;;;;16.40;83.50;;;;;;5055311;28;19909;-72
2023/12/26 15:55:43;;;;;;;;;;;16.40;83.30;;;;;;5055200;28;19909;-72
2023/12/26 15:58:09;;;;;;;;;;;16.50;83.80;;;;;;5055138;28;20406;-72
2023/12/26 16:00:37;;;;;;;;;;;16.40;83.50;;;;;;5055704;28;19909;-72
2023/12/26 16:03:03;;;;;;;;;;;16.40;83.40;;;;;;5054767;28;19942;-72
2023/12/26 16:05:29;;;;;;;;;;;16.40;83.40;;;;;;5055101;28;20260;-72
2023/12/26 16:07:55;;;;;;;;;;;16.50;83.70;;;;;;5054958;28;19955;-72
2023/12/26 16:10:23;;;;;;;;;;;16.70;83.70;;;;;;5055144;28;19909;-72
2023/12/26 16:12:49;;;;;;;;;;;16.40;83.40;;;;;;5054907;28;19920;-72
2023/12/26 16:15:14;;;;;;;;;;;16.40;83.90;;;;;;5054151;28;19909;-72
2023/12/26 16:17:40;;;;;;;;;;;16.40;83.20;;;;;;5054894;28;19955;-72
2023/12/26 16:20:06;;;;;;;;;;;16.40;83.40;;;;;;5054738;28;19909;-72
2023/12/26 16:22:32;;;;;;;;;;;16.30;82.10;;;;;;5054721;28;19919;-73
2023/12/26 16:24:57;;;;;;;;;;;16.60;83.40;;;;;;5054729;28;19909;-72
2023/12/26 16:27:24;;;;;;;;;;;16.40;83.20;;;;;;5054659;28;20406;-72
2023/12/26 16:29:49;;;;;;;;;;;16.30;83.10;;;;;;5055414;28;19954;-72
2023/12/26 16:32:15;;;;;;;;;;;16.30;83.30;;;;;;5054434;28;19917;-72
2023/12/26 16:34:40;;;;;;;;;;;16.30;83.10;;;;;;5054639;28;19913;-72
2023/12/26 16:37:06;;;;;;;;;;;16.20;83.20;;;;;;5054459;28;19916;-72
2023/12/26 16:39:32;;;;;;;;;;;16.30;83.10;;;;;;5054513;28;19919;-72
2023/12/26 16:42:07;;;;;;;;;;;16.30;82.90;;;;;;5054476;28;19913;-76
2023/12/26 16:44:40;;;;;;;;;;;16.30;78.30;;;;;;5054973;28;19909;-76
2023/12/26 16:47:05;;;;;;;;;;;16.30;78.00;;;;;;5054539;28;19908;-76
2023/12/26 16:49:31;;;;;;;;;;;16.30;83.10;;;;;;5054264;28;20458;-76
2023/12/26 16:51:56;;;;;;;;;;;16.30;83.10;;;;;;5054153;28;19952;-76
2023/12/26 16:54:22;;;;;;;;;;;16.20;82.90;;;;;;5054113;28;19999;-76
2023/12/26 16:56:47;;;;;;;;;;;16.30;83.00;;;;;;5054670;28;19909;-76
2023/12/26 16:59:13;;;;;;;;;;;16.20;82.80;;;;;;5054000;28;19995;-76
2023/12/26 17:01:42;;;;;;;;;;;16.20;82.80;;;;;;5053963;28;20308;-76
2023/12/26 17:04:09;;;;;;;;;;;16.30;78.00;;;;;;5053846;28;19964;-76
2023/12/26 17:06:41;;;;;;;;;;;16.30;82.80;;;;;;5054240;28;19963;-76